createdAt,value
2023-01-09T00:01:55.882Z,76.47
2023-01-09T00:04:22.339Z,76.31
2023-01-09T00:06:54.113Z,76.72
2023-01-09T00:09:22.229Z,76.77
2023-01-09T00:11:49.171Z,76.55
2023-01-09T00:14:19.197Z,75.88
2023-01-09T00:16:45.759Z,77.27
2023-01-09T00:19:12.270Z,76.25
2023-01-09T00:21:38.866Z,76.96
2023-01-09T00:24:05.931Z,76.43
2023-01-09T00:26:32.511Z,77.17
2023-01-09T00:28:59.124Z,78.23
2023-01-09T00:31:25.729Z,77.63
2023-01-09T00:33:57.834Z,77.50
2023-01-09T00:36:24.614Z,77.39
2023-01-09T00:38:51.420Z,77.41
2023-01-09T00:41:22.672Z,77.04
2023-01-09T00:43:53.262Z,77.75
2023-01-09T00:46:24.720Z,77.87
2023-01-09T00:48:51.476Z,77.42
2023-01-09T00:51:19.856Z,77.83
2023-01-09T00:53:47.841Z,77.54
2023-01-09T00:56:18.248Z,76.75
2023-01-09T00:58:45.916Z,77.59
2023-01-09T01:01:12.653Z,77.75
2023-01-09T01:03:39.676Z,77.74
2023-01-09T01:06:24.674Z,77.51
2023-01-09T01:08:51.233Z,77.56
2023-01-09T01:11:17.750Z,77.70
2023-01-09T01:13:44.311Z,76.62
2023-01-09T01:16:12.859Z,76.72
2023-01-09T01:18:40.170Z,76.91
2023-01-09T01:21:11.433Z,77.61
2023-01-09T01:23:38.104Z,78.33
2023-01-09T01:26:12.987Z,77.77
2023-01-09T01:28:40.050Z,77.50
2023-01-09T01:31:07.379Z,77.96
2023-01-09T01:33:34.625Z,77.20
2023-01-09T01:36:08.742Z,77.83
2023-01-09T01:38:36.239Z,77.69
2023-01-09T01:41:03.846Z,77.23
2023-01-09T01:43:54.301Z,76.48
2023-01-09T01:46:20.973Z,75.96
2023-01-09T01:48:56.418Z,76.07
2023-01-09T01:51:25.536Z,75.57
2023-01-09T01:53:55.761Z,75.59
2023-01-09T01:56:30.317Z,75.93
2023-01-09T01:59:27.921Z,74.80
2023-01-09T02:01:58.363Z,75.14
2023-01-09T02:04:25.176Z,75.96
2023-01-09T02:07:13.547Z,76.36
2023-01-09T02:09:44.481Z,76.31
2023-01-09T02:12:20.132Z,76.87
2023-01-09T02:14:48.507Z,76.47
2023-01-09T02:17:35.880Z,76.22
2023-01-09T02:20:39.223Z,75.01
2023-01-09T02:23:24.551Z,75.38
2023-01-09T02:26:27.336Z,74.75
2023-01-09T02:29:27.813Z,75.18
2023-01-09T02:32:13.099Z,76.89
2023-01-09T02:35:10.554Z,76.89
2023-01-09T02:37:44.628Z,77.01
2023-01-09T02:40:29.608Z,76.89
2023-01-09T02:42:58.939Z,76.51
2023-01-09T02:45:25.441Z,77.36
2023-01-09T02:47:52.041Z,75.95
2023-01-09T02:50:27.663Z,76.63
2023-01-09T02:53:11.206Z,77.07
2023-01-09T02:55:52.779Z,78.05
2023-01-09T02:58:50.362Z,77.69
2023-01-09T03:01:52.155Z,76.34
2023-01-09T03:04:39.498Z,77.95
2023-01-09T03:07:25.487Z,77.12
2023-01-09T03:09:57.360Z,76.25
2023-01-09T03:12:29.590Z,78.48
2023-01-09T03:14:59.396Z,77.95
2023-01-09T03:17:37.060Z,78.11
2023-01-09T03:20:06.651Z,78.18
2023-01-09T03:22:33.194Z,77.00
2023-01-09T03:24:59.682Z,75.55
2023-01-09T03:27:26.373Z,75.69
2023-01-09T03:29:53.428Z,76.03
2023-01-09T03:32:20.060Z,76.03
2023-01-09T03:34:46.534Z,75.55
2023-01-09T03:37:13.032Z,75.98
2023-01-09T03:39:39.580Z,75.72
2023-01-09T03:42:06.049Z,75.43
2023-01-09T03:44:32.509Z,75.15
2023-01-09T03:46:59.010Z,75.55
2023-01-09T03:49:25.608Z,76.09
2023-01-09T03:51:52.064Z,75.82
2023-01-09T03:54:18.480Z,77.20
2023-01-09T03:56:44.952Z,75.85
2023-01-09T03:59:11.587Z,76.61
2023-01-09T04:01:38.215Z,77.27
2023-01-09T04:04:04.900Z,76.14
2023-01-09T04:06:31.398Z,75.54
2023-01-09T04:08:57.873Z,76.31
2023-01-09T04:11:24.321Z,75.55
2023-01-09T04:13:50.963Z,75.87
2023-01-09T04:16:17.604Z,75.31
2023-01-09T04:18:44.112Z,74.03
2023-01-09T04:21:10.693Z,74.04
2023-01-09T04:23:37.192Z,74.98
2023-01-09T04:26:03.699Z,74.48
2023-01-09T04:28:30.291Z,75.54
2023-01-09T04:30:56.790Z,75.32
2023-01-09T04:33:23.365Z,75.16
2023-01-09T04:35:49.817Z,75.38
2023-01-09T04:38:16.263Z,74.99
2023-01-09T04:40:42.704Z,75.58
2023-01-09T04:43:09.280Z,75.36
2023-01-09T04:45:35.758Z,75.22
2023-01-09T04:48:02.909Z,74.80
2023-01-09T04:50:31.287Z,75.86
2023-01-09T04:52:58.252Z,75.47
2023-01-09T04:55:24.728Z,76.17
2023-01-09T04:57:51.221Z,76.54
2023-01-09T05:00:17.836Z,76.59
2023-01-09T05:02:44.342Z,76.78
2023-01-09T05:05:11.872Z,76.59
2023-01-09T05:07:39.061Z,77.15
2023-01-09T05:10:06.762Z,77.10
2023-01-09T05:12:36.143Z,76.96
2023-01-09T05:15:07.169Z,76.64
2023-01-09T05:17:33.624Z,77.04
2023-01-09T05:20:02.819Z,77.19
2023-01-09T05:22:29.335Z,77.75
2023-01-09T05:24:56.176Z,80.07
2023-01-09T05:27:22.966Z,79.66
2023-01-09T05:29:49.501Z,80.49
2023-01-09T05:32:16.049Z,79.98
2023-01-09T05:34:42.581Z,80.38
2023-01-09T05:37:09.047Z,80.37
2023-01-09T05:39:35.584Z,79.83
2023-01-09T05:42:02.144Z,80.57
2023-01-09T05:44:28.642Z,80.29
2023-01-09T05:46:55.089Z,81.31
2023-01-09T05:49:21.631Z,82.45
2023-01-09T05:51:48.068Z,81.71
2023-01-09T05:54:14.501Z,81.71
2023-01-09T05:56:42.626Z,81.47
2023-01-09T05:59:09.133Z,82.45
2023-01-09T06:01:35.777Z,82.96
2023-01-09T06:04:02.415Z,82.83
2023-01-09T06:06:28.863Z,82.55
2023-01-09T06:08:55.394Z,82.59
2023-01-09T06:11:21.887Z,82.43
2023-01-09T06:13:48.393Z,82.13
2023-01-09T06:16:14.931Z,83.02
2023-01-09T06:18:41.492Z,82.72
2023-01-09T06:21:08.067Z,82.93
2023-01-09T06:23:34.548Z,82.37
2023-01-09T06:26:01.018Z,82.04
2023-01-09T06:28:27.482Z,82.41
2023-01-09T06:30:54.006Z,82.56
2023-01-09T06:33:20.714Z,82.93
2023-01-09T06:35:47.325Z,82.85
2023-01-09T06:38:13.830Z,82.33
2023-01-09T06:40:40.327Z,81.84
2023-01-09T06:43:06.844Z,81.91
2023-01-09T06:45:33.456Z,81.70
2023-01-09T06:47:59.952Z,82.13
2023-01-09T06:50:26.450Z,81.97
2023-01-09T06:52:52.915Z,81.40
2023-01-09T06:55:19.668Z,80.90
2023-01-09T06:57:46.138Z,80.74
2023-01-09T07:00:12.967Z,80.88
2023-01-09T07:02:39.392Z,80.35
2023-01-09T07:05:08.125Z,80.62
2023-01-09T07:07:34.974Z,80.55
2023-01-09T07:10:01.449Z,81.15
2023-01-09T07:12:28.023Z,80.77
2023-01-09T07:14:56.209Z,80.40
2023-01-09T07:17:24.092Z,80.91
2023-01-09T07:19:50.513Z,80.91
2023-01-09T07:22:23.681Z,80.68
2023-01-09T07:24:50.285Z,81.57
2023-01-09T07:27:16.788Z,82.47
2023-01-09T07:29:43.433Z,82.28
2023-01-09T07:32:10.315Z,81.95
2023-01-09T07:34:36.873Z,81.57
2023-01-09T07:37:03.528Z,82.88
2023-01-09T07:39:30.008Z,82.99
2023-01-09T07:41:56.610Z,82.48
2023-01-09T07:44:26.308Z,82.01
2023-01-09T07:46:52.801Z,81.35
2023-01-09T07:49:19.962Z,82.24
2023-01-09T07:51:48.295Z,82.75
2023-01-09T07:54:14.925Z,82.82
2023-01-09T07:56:41.580Z,82.85
2023-01-09T07:59:08.209Z,82.64
2023-01-09T08:01:34.915Z,83.53
2023-01-09T08:04:01.873Z,83.54
2023-01-09T08:06:28.420Z,84.34
2023-01-09T08:08:54.957Z,82.73
2023-01-09T08:11:21.578Z,83.47
2023-01-09T08:13:48.056Z,84.08
2023-01-09T08:16:15.078Z,83.01
2023-01-09T08:18:41.831Z,83.97
2023-01-09T08:21:08.418Z,83.42
2023-01-09T08:23:34.926Z,83.21
2023-01-09T08:26:01.535Z,83.48
2023-01-09T08:28:27.985Z,83.65
2023-01-09T08:30:56.382Z,83.44
2023-01-09T08:33:23.184Z,83.48
2023-01-09T08:35:49.844Z,82.70
2023-01-09T08:38:16.541Z,82.23
2023-01-09T08:40:43.166Z,82.84
2023-01-09T08:43:28.528Z,82.73
2023-01-09T08:46:13.771Z,82.32
2023-01-09T08:48:40.367Z,82.74
2023-01-09T08:51:06.915Z,81.76
2023-01-09T08:53:33.426Z,82.12
2023-01-09T08:56:00.125Z,83.02
2023-01-09T08:58:26.836Z,82.57
2023-01-09T09:00:56.020Z,82.29
2023-01-09T09:03:22.811Z,82.40
2023-01-09T09:05:49.387Z,81.82
2023-01-09T09:08:17.483Z,82.19
2023-01-09T09:10:44.025Z,82.06
2023-01-09T09:13:10.587Z,82.24
2023-01-09T09:15:40.173Z,82.10
2023-01-09T09:18:11.706Z,82.20
2023-01-09T09:20:39.049Z,81.81
2023-01-09T09:23:08.253Z,81.48
2023-01-09T09:25:35.502Z,81.64
2023-01-09T09:28:02.076Z,81.63
2023-01-09T09:30:28.820Z,81.75
2023-01-09T09:32:55.706Z,80.77
2023-01-09T09:35:23.059Z,79.76
2023-01-09T09:37:58.039Z,79.63
2023-01-09T09:40:40.937Z,81.17
2023-01-09T09:43:43.344Z,80.95
2023-01-09T09:46:20.431Z,80.88
2023-01-09T09:48:56.018Z,80.57
2023-01-09T09:51:40.368Z,79.83
2023-01-09T09:54:27.216Z,79.74
2023-01-09T09:56:58.020Z,79.25
2023-01-09T09:59:33.272Z,79.98
2023-01-09T10:02:10.171Z,79.64
2023-01-09T10:04:48.378Z,79.09
2023-01-09T10:07:22.556Z,79.09
2023-01-09T10:09:54.395Z,79.50
2023-01-09T10:12:29.872Z,79.43
2023-01-09T10:14:58.843Z,79.88
2023-01-09T10:17:28.243Z,79.06
2023-01-09T10:20:07.422Z,79.52
2023-01-09T10:22:53.403Z,79.33
2023-01-09T10:25:25.535Z,79.74
2023-01-09T10:28:31.643Z,79.30
2023-01-09T10:31:10.395Z,78.94
2023-01-09T10:34:04.253Z,78.87
2023-01-09T10:36:36.766Z,78.75
2023-01-09T10:39:10.520Z,78.72
2023-01-09T10:42:02.152Z,78.36
2023-01-09T10:44:37.659Z,78.63
2023-01-09T10:47:13.670Z,77.96
2023-01-09T10:49:40.664Z,78.43
2023-01-09T10:52:14.818Z,78.20
2023-01-09T10:54:49.475Z,78.51
2023-01-09T10:57:30.281Z,77.96
2023-01-09T10:59:56.992Z,78.24
2023-01-09T11:02:31.462Z,77.37
2023-01-09T11:04:58.101Z,77.84
2023-01-09T11:07:32.914Z,77.57
2023-01-09T11:10:09.663Z,77.95
2023-01-09T11:12:36.750Z,77.53
2023-01-09T11:15:21.093Z,77.21
2023-01-09T11:17:50.529Z,78.11
2023-01-09T11:20:28.428Z,77.58
2023-01-09T11:22:57.553Z,76.94
2023-01-09T11:25:26.589Z,76.73
2023-01-09T11:28:01.929Z,76.87
2023-01-09T11:30:30.411Z,76.19
2023-01-09T11:32:58.719Z,75.94
2023-01-09T11:35:33.766Z,76.59
2023-01-09T11:38:14.986Z,75.21
2023-01-09T11:40:46.500Z,75.25
2023-01-09T11:43:18.662Z,74.60
2023-01-09T11:46:01.436Z,75.23
2023-01-09T11:48:48.644Z,74.90
2023-01-09T11:51:21.768Z,74.52
2023-01-09T11:53:55.998Z,73.58
2023-01-09T11:56:22.752Z,74.27
2023-01-09T11:58:49.352Z,72.69
2023-01-09T12:01:25.165Z,72.66
2023-01-09T12:04:10.096Z,72.11
2023-01-09T12:06:39.632Z,70.85
2023-01-09T12:09:20.169Z,69.78
2023-01-09T12:12:17.612Z,68.17
2023-01-09T12:15:03.461Z,66.29
2023-01-09T12:17:42.932Z,65.31
2023-01-09T12:20:20.453Z,64.27
2023-01-09T12:23:01.927Z,64.80
2023-01-09T12:25:50.305Z,62.82
2023-01-09T12:28:35.424Z,62.78
2023-01-09T12:31:04.878Z,62.46
2023-01-09T12:33:57.960Z,63.12
2023-01-09T12:36:29.761Z,63.03
2023-01-09T12:39:22.568Z,62.91
2023-01-09T12:42:07.904Z,62.63
2023-01-09T12:44:37.033Z,62.63
2023-01-09T12:47:17.239Z,60.64
2023-01-09T12:50:09.885Z,60.42
2023-01-09T12:52:41.932Z,60.90
2023-01-09T12:55:33.252Z,61.39
2023-01-09T12:58:07.825Z,62.11
2023-01-09T13:00:39.991Z,60.46
2023-01-09T13:03:18.437Z,60.29
2023-01-09T13:05:53.634Z,60.88
2023-01-09T13:08:41.729Z,61.75
2023-01-09T13:11:20.011Z,62.53
2023-01-09T13:13:52.904Z,61.54
2023-01-09T13:16:27.021Z,61.97
2023-01-09T13:19:03.524Z,63.27
2023-01-09T13:21:30.792Z,62.82
2023-01-09T13:24:16.271Z,62.82
2023-01-09T13:26:45.536Z,63.55
2023-01-09T13:29:29.916Z,64.22
2023-01-09T13:32:08.476Z,64.78
2023-01-09T13:34:37.280Z,64.58
2023-01-09T13:37:04.644Z,64.10
2023-01-09T13:39:33.557Z,63.63
2023-01-09T13:42:21.698Z,63.68
2023-01-09T13:44:50.709Z,64.17
2023-01-09T13:47:22.033Z,64.60
2023-01-09T13:49:48.405Z,65.59
2023-01-09T13:52:38.814Z,64.73
2023-01-09T13:55:11.207Z,65.24
2023-01-09T13:57:42.297Z,65.56
2023-01-09T14:00:14.982Z,65.35
2023-01-09T14:02:42.279Z,65.20
2023-01-09T14:05:36.219Z,65.47
2023-01-09T14:08:16.127Z,65.01
2023-01-09T14:10:52.187Z,65.07
2023-01-09T14:13:23.017Z,64.97
2023-01-09T14:15:51.969Z,65.02
2023-01-09T14:18:37.089Z,64.42
2023-01-09T14:23:52.573Z,64.11
2023-01-09T14:26:46.591Z,63.82
2023-01-09T14:29:31.134Z,64.02
2023-01-09T14:32:22.391Z,63.70
2023-01-09T14:34:53.859Z,63.08
2023-01-09T14:37:20.924Z,63.32
2023-01-09T14:39:50.471Z,63.42
2023-01-09T14:42:24.137Z,63.52
2023-01-09T14:44:55.495Z,63.81
2023-01-09T14:47:30.985Z,63.59
2023-01-09T14:50:25.421Z,64.04
2023-01-09T14:52:59.423Z,63.25
2023-01-09T14:55:44.132Z,63.42
2023-01-09T14:58:31.762Z,63.75
2023-01-09T15:01:10.501Z,63.44
2023-01-09T15:03:49.416Z,63.55
2023-01-09T15:06:20.790Z,64.60
2023-01-09T15:08:57.049Z,64.51
2023-01-09T15:11:24.369Z,64.38
2023-01-09T15:13:53.330Z,64.12
2023-01-09T15:16:22.320Z,64.68
2023-01-09T15:18:52.177Z,65.06
2023-01-09T15:21:23.243Z,65.42
2023-01-09T15:23:50.069Z,65.30
2023-01-09T15:26:26.179Z,65.00
2023-01-09T15:28:54.442Z,64.47
2023-01-09T15:31:24.110Z,65.02
2023-01-09T15:33:53.828Z,64.97
2023-01-09T15:36:26.293Z,65.22
2023-01-09T15:38:54.152Z,65.55
2023-01-09T15:41:49.098Z,65.73
2023-01-09T15:44:26.330Z,65.64
2023-01-09T15:46:58.697Z,65.83
2023-01-09T15:49:25.818Z,65.72
2023-01-09T15:51:53.775Z,65.63
2023-01-09T15:54:28.719Z,66.05
2023-01-09T15:56:55.297Z,65.66
2023-01-09T15:59:24.700Z,65.83
2023-01-09T16:02:19.593Z,65.83
2023-01-09T16:04:47.629Z,65.55
2023-01-09T16:07:16.883Z,65.57
2023-01-09T16:09:48.336Z,65.18
2023-01-09T16:12:20.364Z,65.06
2023-01-09T16:14:52.522Z,65.07
2023-01-09T16:17:23.793Z,65.31
2023-01-09T16:19:58.898Z,65.78
2023-01-09T16:22:30.594Z,65.51
2023-01-09T16:25:23.093Z,65.35
2023-01-09T16:28:30.603Z,65.03
2023-01-09T16:31:01.871Z,65.25
2023-01-09T16:33:30.561Z,65.79
2023-01-09T16:36:00.639Z,65.87
2023-01-09T16:38:27.750Z,65.46
2023-01-09T16:41:26.619Z,65.55
2023-01-09T16:43:53.196Z,65.95
2023-01-09T16:46:21.299Z,65.21
2023-01-09T16:48:48.282Z,65.38
2023-01-09T16:51:17.655Z,65.59
2023-01-09T16:53:44.868Z,65.64
2023-01-09T16:56:18.586Z,65.77
2023-01-09T16:58:46.229Z,65.72
2023-01-09T17:01:15.092Z,65.75
2023-01-09T17:03:44.057Z,65.47
2023-01-09T17:06:19.999Z,65.87
2023-01-09T17:09:46.204Z,100.00
2023-01-09T17:12:20.638Z,65.87
2023-01-09T17:14:47.658Z,65.80
2023-01-09T17:17:14.942Z,66.30
2023-01-09T17:19:41.833Z,66.35
2023-01-09T17:22:08.678Z,66.84
2023-01-09T17:24:54.112Z,66.26
2023-01-09T17:27:44.881Z,66.98
2023-01-09T17:30:18.868Z,66.60
2023-01-09T17:32:45.932Z,66.82
2023-01-09T17:35:13.454Z,67.40
2023-01-09T17:37:39.945Z,67.45
2023-01-09T17:40:20.649Z,67.82
2023-01-09T17:42:47.152Z,67.43
2023-01-09T17:45:14.286Z,67.47
2023-01-09T17:47:40.952Z,67.58
2023-01-09T17:50:14.348Z,67.80
2023-01-09T17:52:41.054Z,68.05
2023-01-09T17:55:08.313Z,67.83
2023-01-09T17:57:35.114Z,67.54
2023-01-09T18:00:01.682Z,67.18
2023-01-09T18:02:28.241Z,67.65
2023-01-09T18:04:54.767Z,66.83
2023-01-09T18:07:21.286Z,67.55
2023-01-09T18:09:47.839Z,67.43
2023-01-09T18:12:14.426Z,66.93
2023-01-09T18:14:42.062Z,67.45
2023-01-09T18:17:11.849Z,67.09
2023-01-09T18:19:38.447Z,67.04
2023-01-09T18:22:04.878Z,67.40
2023-01-09T18:24:31.354Z,66.94
2023-01-09T18:26:57.834Z,66.77
2023-01-09T18:29:24.380Z,67.26
2023-01-09T18:31:51.753Z,67.15
2023-01-09T18:34:18.299Z,66.71
2023-01-09T18:36:45.056Z,66.28
2023-01-09T18:39:11.656Z,66.17
2023-01-09T18:41:38.325Z,66.40
2023-01-09T18:44:04.848Z,67.03
2023-01-09T18:46:32.292Z,66.62
2023-01-09T18:49:04.318Z,67.01
2023-01-09T18:51:32.339Z,67.32
2023-01-09T18:53:58.848Z,67.61
2023-01-09T18:56:25.566Z,67.22
2023-01-09T18:58:57.100Z,67.44
2023-01-09T19:01:24.334Z,67.15
2023-01-09T19:03:50.835Z,67.25
2023-01-09T19:06:17.350Z,67.09
2023-01-09T19:08:44.089Z,67.07
2023-01-09T19:11:10.570Z,67.69
2023-01-09T19:13:37.500Z,67.35
2023-01-09T19:16:06.807Z,67.97
2023-01-09T19:18:39.499Z,68.06
2023-01-09T19:21:20.461Z,68.06
2023-01-09T19:23:47.787Z,67.89
2023-01-09T19:26:20.784Z,67.86
2023-01-09T19:28:48.087Z,67.66
2023-01-09T19:31:15.062Z,67.63
2023-01-09T19:33:41.771Z,67.75
2023-01-09T19:36:08.806Z,67.93
2023-01-09T19:38:35.553Z,67.68
2023-01-09T19:41:12.609Z,68.19
2023-01-09T19:43:40.541Z,67.63
2023-01-09T19:46:09.356Z,68.04
2023-01-09T19:48:36.324Z,67.71
2023-01-09T19:51:07.523Z,67.76
2023-01-09T19:53:35.138Z,67.62
2023-01-09T19:56:07.686Z,67.89
2023-01-09T19:58:34.166Z,68.17
2023-01-09T20:01:12.704Z,67.45
2023-01-09T20:03:47.659Z,68.34
2023-01-09T20:06:19.271Z,68.47
2023-01-09T20:08:49.093Z,67.81
2023-01-09T20:11:16.274Z,68.38
2023-01-09T20:13:43.130Z,68.14
2023-01-09T20:16:15.044Z,68.65
2023-01-09T20:18:41.499Z,67.77
2023-01-09T20:21:07.995Z,67.58
2023-01-09T20:23:34.612Z,68.24
2023-01-09T20:26:01.957Z,68.04
2023-01-09T20:28:28.460Z,68.14
2023-01-09T20:30:55.176Z,68.10
2023-01-09T20:33:22.217Z,68.40
2023-01-09T20:35:49.006Z,68.35
2023-01-09T20:38:15.549Z,68.17
2023-01-09T20:40:44.949Z,67.72
2023-01-09T20:43:12.832Z,67.51
2023-01-09T20:45:40.710Z,67.82
2023-01-09T20:48:08.311Z,67.46
2023-01-09T20:50:35.043Z,68.07
2023-01-09T20:53:01.538Z,68.04
2023-01-09T20:55:28.052Z,67.58
2023-01-09T20:57:54.485Z,67.75
2023-01-09T21:00:21.648Z,67.39
2023-01-09T21:02:48.140Z,67.71
2023-01-09T21:05:14.721Z,67.64
2023-01-09T21:07:41.288Z,66.90
2023-01-09T21:10:08.343Z,67.43
2023-01-09T21:12:34.880Z,67.10
2023-01-09T21:15:04.464Z,66.99
2023-01-09T21:17:38.126Z,67.74
2023-01-09T21:20:07.356Z,66.78
2023-01-09T21:22:35.114Z,67.61
2023-01-09T21:25:02.218Z,67.72
2023-01-09T21:27:38.375Z,67.20
2023-01-09T21:30:06.316Z,67.56
2023-01-09T21:32:32.966Z,67.68
2023-01-09T21:35:04.296Z,67.74
2023-01-09T21:37:33.244Z,67.95
2023-01-09T21:40:00.532Z,67.58
2023-01-09T21:42:46.682Z,67.10
2023-01-09T21:45:35.180Z,67.27
2023-01-09T21:48:04.172Z,67.80
2023-01-09T21:50:30.637Z,67.07
2023-01-09T21:52:57.130Z,66.90
2023-01-09T21:55:23.664Z,67.48
2023-01-09T21:57:55.067Z,67.01
2023-01-09T22:00:21.965Z,66.76
2023-01-09T22:02:48.434Z,66.73
2023-01-09T22:05:14.915Z,66.61
2023-01-09T22:07:41.401Z,67.02
2023-01-09T22:10:08.899Z,66.96
2023-01-09T22:12:35.361Z,67.24
2023-01-09T22:15:02.019Z,67.28
2023-01-09T22:17:30.036Z,67.04
2023-01-09T22:19:56.585Z,66.51
2023-01-09T22:22:23.073Z,66.26
2023-01-09T22:24:50.296Z,66.53
2023-01-09T22:27:16.911Z,65.97
2023-01-09T22:29:43.371Z,65.43
2023-01-09T22:32:09.809Z,66.08
2023-01-09T22:34:36.262Z,66.52
2023-01-09T22:37:02.961Z,67.03
2023-01-09T22:39:29.650Z,66.36
2023-01-09T22:41:56.160Z,66.80
2023-01-09T22:44:22.647Z,66.43
2023-01-09T22:46:49.105Z,66.63
2023-01-09T22:49:15.563Z,65.77
2023-01-09T22:51:42.042Z,66.53
2023-01-09T22:54:08.542Z,67.40
2023-01-09T22:56:35.174Z,67.08
2023-01-09T22:59:01.704Z,67.12
2023-01-09T23:01:28.392Z,66.81
2023-01-09T23:03:54.885Z,67.28
2023-01-09T23:06:23.116Z,66.93
2023-01-09T23:08:50.953Z,66.66
2023-01-09T23:11:41.658Z,67.61
2023-01-09T23:14:08.153Z,67.04
2023-01-09T23:16:34.681Z,66.81
2023-01-09T23:19:01.301Z,67.66
2023-01-09T23:21:27.738Z,66.88
2023-01-09T23:23:54.206Z,66.63
2023-01-09T23:26:20.802Z,67.03
2023-01-09T23:28:47.253Z,66.86
2023-01-09T23:31:13.812Z,66.61
2023-01-09T23:33:40.337Z,66.55
2023-01-09T23:36:06.945Z,66.41
2023-01-09T23:38:33.501Z,66.50
2023-01-09T23:40:59.924Z,66.20
2023-01-09T23:43:26.364Z,66.51
2023-01-09T23:45:53.012Z,66.04
2023-01-09T23:48:19.909Z,66.54
2023-01-09T23:50:51.389Z,66.20
2023-01-09T23:53:19.221Z,66.19
2023-01-09T23:55:46.060Z,66.60
2023-01-09T23:58:12.562Z,66.34
